Time;durP1;ratioP1;P1;durP2;ratioP2;P2;SDS_P1;SDS_P2;PMS_P1;PMS_P2;Temp;Humidity;BMP_temperature;BMP_pressure;BME280_temperature;BME280_humidity;BME280_pressure;Samples;Min_cycle;Max_cycle;Signal;HPM_P1;HPM_P2
2022/06/01 00:01:50;;;;;;;19.48;16.00;;;;;;;10.64;98.52;101165.69;5031363;28;20083;-73
2022/06/01 00:04:16;;;;;;;16.67;15.02;;;;;;;10.65;98.63;101172.75;5031432;28;20121;-73
2022/06/01 00:06:42;;;;;;;17.15;15.35;;;;;;;10.66;98.28;101165.47;5021606;28;20026;-72
2022/06/01 00:09:07;;;;;;;16.85;14.80;;;;;;;10.67;98.16;101164.41;5033286;28;20051;-73
2022/06/01 00:11:33;;;;;;;17.20;15.40;;;;;;;10.67;97.79;101165.25;5034196;28;20036;-73
2022/06/01 00:13:58;;;;;;;17.48;15.05;;;;;;;10.62;98.19;101167.78;5033035;28;20137;-73
2022/06/01 00:16:24;;;;;;;17.05;15.35;;;;;;;10.66;97.57;101174.44;5034534;28;20042;-73
2022/06/01 00:18:49;;;;;;;17.23;15.52;;;;;;;10.64;98.18;101171.09;5033978;28;20029;-73
2022/06/01 00:21:14;;;;;;;18.17;16.27;;;;;;;10.65;97.48;101170.06;5028357;28;20046;-73
2022/06/01 00:23:40;;;;;;;18.55;16.65;;;;;;;10.63;97.80;101170.28;5014037;28;20030;-73
2022/06/01 00:26:05;;;;;;;16.92;15.32;;;;;;;10.62;97.12;101181.31;5014349;28;20036;-73
2022/06/01 00:28:31;;;;;;;18.02;16.20;;;;;;;10.61;97.86;101163.41;5014247;28;20044;-72
2022/06/01 00:30:57;;;;;;;17.73;15.98;;;;;;;10.54;98.06;101160.75;5014390;28;20033;-73
2022/06/01 00:33:22;;;;;;;18.65;16.73;;;;;;;10.61;98.29;101174.22;5013973;28;20026;-73
2022/06/01 00:35:47;;;;;;;18.48;16.67;;;;;;;10.62;98.21;101170.50;5016085;28;20032;-73
2022/06/01 00:38:13;;;;;;;18.33;16.52;;;;;;;10.62;97.96;101178.59;5032622;28;20075;-73
2022/06/01 00:40:39;;;;;;;20.20;18.02;;;;;;;10.64;98.79;101181.91;5033742;28;20099;-73
2022/06/01 00:43:25;;;;;;;20.05;16.67;;;;;;;10.68;98.46;101183.16;5033925;28;20030;-73
2022/06/01 00:45:51;;;;;;;18.23;16.33;;;;;;;10.66;98.49;101179.00;5033716;28;20033;-73
2022/06/01 00:48:21;;;;;;;18.08;16.38;;;;;;;10.68;98.85;101172.31;5033843;28;20037;-72
2022/06/01 00:50:46;;;;;;;19.05;17.13;;;;;;;10.66;98.69;101174.44;5027953;28;20033;-73
2022/06/01 00:53:19;;;;;;;18.88;17.02;;;;;;;10.54;98.41;101173.47;5020640;28;20029;-73
2022/06/01 00:55:54;;;;;;;18.67;16.88;;;;;;;10.51;98.36;101177.41;5033554;28;20048;-72
2022/06/01 00:58:31;;;;;;;20.55;18.40;;;;;;;10.54;98.85;101182.41;5033614;28;20041;-73
2022/06/01 01:00:58;;;;;;;18.60;16.70;;;;;;;10.51;98.39;101171.16;5031330;28;20033;-73
2022/06/01 01:03:28;;;;;;;19.15;17.33;;;;;;;10.49;98.07;101174.09;5032299;28;20036;-72
2022/06/01 01:06:13;;;;;;;19.20;17.17;;;;;;;10.53;97.89;101169.09;5033467;28;20029;-73
2022/06/01 01:08:40;;;;;;;18.90;16.95;;;;;;;10.48;98.32;101171.59;5020461;28;20041;-72
2022/06/01 01:11:07;;;;;;;19.58;17.58;;;;;;;10.51;98.03;101188.25;5013663;28;20433;-73
2022/06/01 01:13:33;;;;;;;18.85;17.05;;;;;;;10.43;97.82;101172.25;5013086;28;20452;-72
2022/06/01 01:15:59;;;;;;;19.77;17.70;;;;;;;10.42;98.16;101176.84;5013539;28;20041;-72
2022/06/01 01:18:38;;;;;;;19.23;17.33;;;;;;;10.37;98.66;101170.41;5013523;28;20026;-72
2022/06/01 01:21:26;;;;;;;20.20;18.10;;;;;;;10.39;98.26;101171.03;5014401;28;20025;-72
2022/06/01 01:24:18;;;;;;;19.88;17.88;;;;;;;10.36;98.27;101166.88;5013476;28;20091;-72
2022/06/01 01:26:48;;;;;;;21.00;18.77;;;;;;;10.32;99.08;101167.50;5013002;28;20145;-73
2022/06/01 01:29:15;;;;;;;22.02;19.92;;;;;;;10.35;98.50;101167.91;5013281;28;20117;-72
2022/06/01 01:31:40;;;;;;;22.02;19.83;;;;;;;10.32;98.63;101157.50;5025105;28;20480;-73
2022/06/01 01:34:06;;;;;;;20.85;18.85;;;;;;;10.32;98.70;101160.19;5032980;28;20163;-72
2022/06/01 01:36:38;;;;;;;21.42;19.17;;;;;;;10.32;99.05;101162.09;5032723;28;20082;-73
2022/06/01 01:39:09;;;;;;;22.83;20.25;;;;;;;10.25;98.56;101162.94;5032891;28;20035;-72
2022/06/01 01:41:52;;;;;;;22.43;18.90;;;;;;;10.25;98.98;101172.91;5032671;28;20052;-72
2022/06/01 01:44:36;;;;;;;23.60;20.27;;;;;;;10.20;98.93;101164.63;5032854;28;20029;-73
2022/06/01 01:47:02;;;;;;;21.50;19.27;;;;;;;10.17;98.85;101165.06;5032674;28;20029;-72
2022/06/01 01:49:31;;;;;;;21.75;19.55;;;;;;;10.11;98.40;101164.88;5032508;28;20025;-72
2022/06/01 01:52:00;;;;;;;22.52;20.08;;;;;;;10.08;99.23;101173.44;5032693;28;20056;-72
2022/06/01 01:54:47;;;;;;;23.30;20.92;;;;;;;10.11;98.96;101174.84;5032565;28;20462;-72
2022/06/01 01:57:48;;;;;;;22.08;19.88;;;;;;;10.08;99.68;101170.72;5032637;28;20057;-72
2022/06/01 02:00:18;;;;;;;23.58;21.27;;;;;;;10.05;99.52;101167.59;5004586;28;20049;-72
2022/06/01 02:03:21;;;;;;;23.17;20.77;;;;;;;10.06;99.29;101182.78;5010128;28;20476;-72
2022/06/01 02:06:07;;;;;;;23.83;21.45;;;;;;;9.99;99.67;101176.56;5012660;28;20076;-72
2022/06/01 02:08:47;;;;;;;24.23;21.75;;;;;;;9.94;99.63;101178.03;5012697;28;20169;-73
2022/06/01 02:14:38;;;;;;;24.30;21.38;;;;;;;9.91;98.97;101170.34;5012524;28;20072;-72
2022/06/01 02:17:06;;;;;;;23.23;20.73;;;;;;;9.87;99.25;101171.00;5011445;28;20029;-72
2022/06/01 02:19:49;;;;;;;24.40;21.92;;;;;;;9.83;99.67;101167.88;5012672;28;20541;-72
2022/06/01 02:22:16;;;;;;;23.92;21.50;;;;;;;9.75;99.65;101168.94;5012940;28;20527;-72
2022/06/01 02:24:42;;;;;;;23.70;21.30;;;;;;;9.74;99.32;101169.97;5012397;28;20030;-72
2022/06/01 02:27:09;;;;;;;23.38;20.92;;;;;;;9.74;99.22;101182.69;5012301;28;20030;-71
2022/06/01 02:29:54;;;;;;;24.67;22.15;;;;;;;9.71;99.42;101175.00;5012341;28;20087;-74
2022/06/01 02:32:21;;;;;;;25.45;22.42;;;;;;;9.69;99.02;101174.34;5011338;28;20034;-72
2022/06/01 02:34:48;;;;;;;26.23;23.58;;;;;;;9.62;99.16;101177.09;5012271;28;20033;-76
2022/06/01 02:37:14;;;;;;;25.45;22.85;;;;;;;9.60;99.47;101179.16;5012200;28;20096;-75
2022/06/01 02:39:45;;;;;;;25.20;22.50;;;;;;;9.54;99.69;101177.28;5012602;28;20126;-73
2022/06/01 02:42:28;;;;;;;25.13;22.17;;;;;;;9.52;99.81;101179.38;5012509;28;20093;-71
2022/06/01 02:45:08;;;;;;;28.55;22.45;;;;;;;9.52;100.00;101172.09;5023116;28;20112;-71
2022/06/01 02:47:37;;;;;;;24.02;21.63;;;;;;;9.50;99.20;101173.38;5036151;28;20036;-72
2022/06/01 02:50:05;;;;;;;25.35;21.85;;;;;;;9.48;100.00;101172.72;5036091;28;20037;-72
2022/06/01 02:52:30;;;;;;;24.17;21.52;;;;;;;9.48;99.56;101170.03;5035899;28;20033;-71
2022/06/01 02:54:55;;;;;;;24.52;21.98;;;;;;;9.45;99.54;101170.44;5035667;28;20034;-71
2022/06/01 02:57:21;;;;;;;24.92;22.13;;;;;;;9.48;99.15;101170.03;5035980;28;20052;-71
2022/06/01 02:59:47;;;;;;;29.52;21.00;;;;;;;9.47;98.90;101171.91;5026580;28;20153;-72
2022/06/01 03:02:13;;;;;;;23.10;20.70;;;;;;;9.46;99.06;101164.84;5030182;28;20060;-72
2022/06/01 03:04:41;;;;;;;23.10;19.90;;;;;;;9.45;98.35;101176.69;5035588;28;20059;-71
2022/06/01 03:07:07;;;;;;;22.50;20.20;;;;;;;9.41;99.52;101156.53;5035552;28;20037;-72
2022/06/01 03:09:33;;;;;;;23.58;20.05;;;;;;;9.44;98.78;101171.50;5028487;28;20041;-72
2022/06/01 03:11:58;;;;;;;23.95;20.70;;;;;;;9.39;98.26;101172.09;5015886;28;20331;-71
2022/06/01 03:14:25;;;;;;;23.80;19.83;;;;;;;9.39;98.46;101170.25;5015686;28;20471;-71
2022/06/01 03:16:50;;;;;;;23.50;20.40;;;;;;;9.35;98.52;101174.41;5015523;28;20112;-72
2022/06/01 03:19:16;;;;;;;23.52;20.92;;;;;;;9.34;99.19;101175.44;5016280;28;20061;-71
2022/06/01 03:21:41;;;;;;;23.42;20.17;;;;;;;9.33;98.56;101176.50;5035084;28;20040;-72
2022/06/01 03:24:09;;;;;;;24.30;19.42;;;;;;;9.29;98.40;101175.25;5035193;28;20075;-71
2022/06/01 03:26:35;;;;;;;23.67;20.20;;;;;;;9.30;98.96;101176.91;5034041;28;20420;-72
2022/06/01 03:29:00;;;;;;;21.65;19.20;;;;;;;9.30;98.81;101171.50;5035166;28;20059;-72
2022/06/01 03:31:26;;;;;;;22.25;19.30;;;;;;;9.26;98.46;101164.03;5035114;28;20021;-71
2022/06/01 03:33:51;;;;;;;22.10;19.65;;;;;;;9.22;98.63;101169.00;5035002;28;20033;-71
2022/06/01 03:36:16;;;;;;;21.15;18.67;;;;;;;9.20;98.22;101168.41;5015660;28;20038;-71
2022/06/01 03:38:42;;;;;;;20.05;17.80;;;;;;;9.16;98.50;101172.53;5013940;28;20383;-71
2022/06/01 03:41:07;;;;;;;21.65;18.92;;;;;;;9.15;98.40;101168.16;5015461;28;20030;-72
2022/06/01 03:45:55;;;;;;;21.05;17.20;;;;;;;9.16;98.61;101169.84;5015015;28;20439;-71
2022/06/01 03:46:22;;;;;;;20.58;17.25;;;;;;;9.09;98.55;101169.00;5014980;28;20060;-71
2022/06/01 03:48:49;;;;;;;21.05;17.20;;;;;;;9.08;98.73;101164.66;5015821;28;20033;-71
2022/06/01 03:51:14;;;;;;;20.60;17.27;;;;;;;9.04;98.75;101173.19;5034741;28;20037;-71
2022/06/01 03:53:39;;;;;;;22.30;17.02;;;;;;;9.10;98.12;101176.06;5034344;28;20120;-72
2022/06/01 03:56:07;;;;;;;22.23;17.52;;;;;;;9.08;98.68;101184.38;5034014;28;20041;-72
2022/06/01 03:58:32;;;;;;;23.15;17.23;;;;;;;9.10;98.76;101182.28;5033558;28;20492;-71
2022/06/01 04:00:58;;;;;;;19.70;16.63;;;;;;;9.08;98.97;101183.56;5032488;28;20033;-71
2022/06/01 04:03:23;;;;;;;19.88;16.58;;;;;;;9.08;97.73;101178.16;5034502;28;20172;-71
2022/06/01 04:05:48;;;;;;;19.55;16.90;;;;;;;9.04;98.59;101189.38;5014957;28;20494;-71
2022/06/01 04:08:14;;;;;;;21.60;16.73;;;;;;;9.04;99.12;101189.38;5014858;28;20538;-71
2022/06/01 04:10:43;;;;;;;19.77;17.17;;;;;;;9.05;98.84;101179.41;5014435;28;20560;-72
2022/06/01 04:13:09;;;;;;;19.48;16.70;;;;;;;9.02;98.66;101186.03;5013330;28;20041;-71
2022/06/01 04:15:34;;;;;;;21.00;16.17;;;;;;;9.03;99.65;101181.47;5014800;28;20052;-72
2022/06/01 04:18:00;;;;;;;21.73;16.17;;;;;;;9.03;99.20;101182.31;5014425;28;20033;-72
2022/06/01 04:20:25;;;;;;;21.67;16.35;;;;;;;9.01;98.75;101184.38;5014382;28;20029;-71
2022/06/01 04:22:54;;;;;;;21.85;16.23;;;;;;;8.99;99.21;101191.84;5017631;28;20146;-72
2022/06/01 04:25:20;;;;;;;20.55;16.05;;;;;;;8.97;99.56;101193.94;5034248;28;20043;-72
2022/06/01 04:27:45;;;;;;;24.30;16.25;;;;;;;8.97;99.58;101180.44;5034101;28;20080;-72
2022/06/01 04:30:14;;;;;;;19.30;15.27;;;;;;;9.01;99.14;101189.78;5033951;28;20037;-71
2022/06/01 04:32:39;;;;;;;19.15;15.57;;;;;;;9.03;99.88;101185.00;5034110;28;20079;-72
2022/06/01 04:35:06;;;;;;;21.42;15.90;;;;;;;9.05;99.93;101190.19;5033978;28;20037;-71
2022/06/01 04:37:31;;;;;;;20.85;15.50;;;;;;;9.09;99.37;101191.44;5030582;28;20030;-72
2022/06/01 04:39:56;;;;;;;19.65;16.10;;;;;;;9.10;100.00;101190.38;5014030;28;20036;-71
2022/06/01 04:42:22;;;;;;;19.00;15.50;;;;;;;9.11;99.77;101192.06;5014229;28;20032;-71
2022/06/01 04:44:47;;;;;;;21.48;15.75;;;;;;;9.16;99.82;101202.25;5017888;28;20022;-71
2022/06/01 04:47:13;;;;;;;19.95;15.80;;;;;;;9.14;99.92;101196.22;5033895;28;20095;-71
2022/06/01 04:49:38;;;;;;;19.75;15.55;;;;;;;9.15;100.00;101200.56;5033720;28;20092;-71
2022/06/01 04:52:05;;;;;;;20.63;14.65;;;;;;;9.13;99.64;101202.66;5033064;28;20447;-71
2022/06/01 04:54:30;;;;;;;19.13;14.23;;;;;;;9.11;100.00;101200.16;5033309;28;20029;-72
2022/06/01 04:56:56;;;;;;;18.27;14.82;;;;;;;9.12;100.00;101204.53;5033514;28;20433;-71
2022/06/01 04:59:21;;;;;;;20.73;14.90;;;;;;;9.14;100.00;101204.31;5029043;28;20053;-71
2022/06/01 05:01:46;;;;;;;20.75;15.23;;;;;;;9.18;100.00;101208.28;5010997;28;20109;-72
2022/06/01 05:04:12;;;;;;;23.88;14.45;;;;;;;9.18;100.00;101210.97;5013863;28;20060;-71
2022/06/01 05:06:38;;;;;;;19.55;14.30;;;;;;;9.23;100.00;101205.78;5013280;28;20029;-71
2022/06/01 05:09:04;;;;;;;19.00;14.02;;;;;;;9.22;100.00;101204.09;5013649;28;20068;-72
2022/06/01 05:11:29;;;;;;;17.45;12.80;;;;;;;9.26;100.00;101201.84;5013389;28;20056;-71
2022/06/01 05:13:54;;;;;;;19.35;13.88;;;;;;;9.28;100.00;101197.88;5013042;28;20442;-71
2022/06/01 05:16:20;;;;;;;20.55;14.10;;;;;;;9.34;100.00;101194.34;5030388;28;20112;-72
2022/06/01 05:18:45;;;;;;;18.73;12.65;;;;;;;9.42;100.00;101195.19;5032944;28;20053;-72
2022/06/01 05:21:11;;;;;;;18.50;13.35;;;;;;;9.45;100.00;101194.75;5031796;28;20040;-71
2022/06/01 05:23:36;;;;;;;17.73;12.95;;;;;;;9.50;100.00;101203.09;5033217;28;20120;-71
2022/06/01 05:26:01;;;;;;;16.25;13.00;;;;;;;9.49;100.00;101196.00;5032704;28;20076;-72
2022/06/01 05:28:31;;;;;;;18.20;12.93;;;;;;;9.55;100.00;101205.97;5033188;28;20557;-72
2022/06/01 05:31:09;;;;;;;18.05;13.05;;;;;;;9.62;100.00;101211.34;5031736;28;20036;-71
2022/06/01 05:33:35;;;;;;;21.63;12.80;;;;;;;9.68;100.00;101210.53;5031803;28;20492;-71
2022/06/01 05:36:01;;;;;;;17.27;12.45;;;;;;;9.69;100.00;101207.63;5032581;28;20030;-71
2022/06/01 05:38:26;;;;;;;22.85;13.30;;;;;;;9.73;100.00;101205.31;5032939;28;20383;-71
2022/06/01 05:40:52;;;;;;;17.80;12.98;;;;;;;9.77;100.00;101203.88;5032525;28;20132;-71
2022/06/01 05:43:18;;;;;;;16.15;12.23;;;;;;;9.81;100.00;101199.69;5032929;28;20061;-72
2022/06/01 05:45:44;;;;;;;21.80;12.43;;;;;;;9.87;100.00;101195.31;5030827;28;20433;-72
2022/06/01 05:48:11;;;;;;;17.40;13.07;;;;;;;9.97;100.00;101198.41;5032537;28;20025;-71
2022/06/01 05:50:37;;;;;;;19.92;12.25;;;;;;;10.01;100.00;101205.06;5032233;28;20033;-71
2022/06/01 05:53:03;;;;;;;18.17;12.30;;;;;;;10.08;100.00;101205.88;5032450;28;20363;-72
2022/06/01 05:55:29;;;;;;;20.95;13.43;;;;;;;10.11;100.00;101208.16;5032463;28;20367;-71
2022/06/01 05:57:54;;;;;;;19.45;13.45;;;;;;;10.20;100.00;101207.91;5032424;28;20033;-71
2022/06/01 06:00:20;;;;;;;16.60;12.45;;;;;;;10.29;100.00;101215.56;5020890;28;20044;-71
2022/06/01 06:02:46;;;;;;;18.40;12.10;;;;;;;10.35;100.00;101213.91;5010803;28;20026;-72
2022/06/01 06:07:57;;;;;;;15.93;12.15;;;;;;;10.57;100.00;101213.63;5012587;28;20080;-72
2022/06/01 06:10:22;;;;;;;16.67;12.82;;;;;;;10.62;100.00;101208.38;5012313;28;20044;-71
2022/06/01 06:12:48;;;;;;;19.48;12.45;;;;;;;10.70;100.00;101213.53;5012454;28;20109;-72
2022/06/01 06:15:14;;;;;;;17.23;11.48;;;;;;;10.80;100.00;101207.66;5024697;28;20041;-72
2022/06/01 06:17:39;;;;;;;16.52;12.00;;;;;;;10.84;100.00;101208.88;5031968;28;20123;-72
2022/06/01 06:20:05;;;;;;;21.10;12.57;;;;;;;10.91;100.00;101212.34;5031655;28;20029;-72
2022/06/01 06:22:30;;;;;;;18.80;13.07;;;;;;;10.96;100.00;101217.97;5032271;28;20026;-72
2022/06/01 06:24:55;;;;;;;16.45;11.52;;;;;;;11.00;100.00;101221.06;5032191;28;20025;-72
2022/06/01 06:27:21;;;;;;;15.13;11.48;;;;;;;11.06;100.00;101228.31;5031983;28;20036;-72
2022/06/01 06:29:46;;;;;;;16.02;11.40;;;;;;;11.13;100.00;101233.69;5020752;28;20113;-72
2022/06/01 06:32:12;;;;;;;19.58;11.82;;;;;;;11.19;100.00;101227.38;5011100;28;20030;-71
2022/06/01 06:34:38;;;;;;;15.40;11.20;;;;;;;11.25;98.47;101234.63;5012227;28;20383;-71
2022/06/01 06:37:04;;;;;;;18.50;11.75;;;;;;;11.30;99.47;101242.09;5011103;28;20521;-71
2022/06/01 06:39:29;;;;;;;19.17;11.70;;;;;;;11.31;100.00;101241.88;5010837;28;20034;-74
2022/06/01 06:41:55;;;;;;;14.73;11.23;;;;;;;11.38;99.63;101247.22;5012375;28;20080;-72
2022/06/01 06:44:20;;;;;;;20.15;11.80;;;;;;;11.46;100.00;101254.28;5021463;28;20080;-74
2022/06/01 06:46:45;;;;;;;16.92;11.70;;;;;;;11.44;100.00;101251.75;5031907;28;20037;-74
2022/06/01 06:49:11;;;;;;;17.38;11.73;;;;;;;11.48;100.00;101258.41;5031623;28;20100;-73
2022/06/01 06:51:37;;;;;;;16.80;12.38;;;;;;;11.52;100.00;101256.94;5032126;28;20116;-73
2022/06/01 06:54:02;;;;;;;17.90;12.52;;;;;;;11.58;100.00;101257.06;5031808;28;20033;-73
2022/06/01 06:56:28;;;;;;;18.73;12.45;;;;;;;11.64;100.00;101259.75;5032078;28;20525;-73
2022/06/01 06:58:53;;;;;;;20.60;11.70;;;;;;;11.64;100.00;101267.88;5021968;28;20038;-73
2022/06/01 07:01:19;;;;;;;16.08;11.30;;;;;;;11.69;100.00;101265.31;5009985;28;20092;-73
2022/06/01 07:03:44;;;;;;;18.20;11.32;;;;;;;11.74;99.97;101267.38;5012577;28;20530;-73
2022/06/01 07:06:11;;;;;;;19.67;10.75;;;;;;;11.80;100.00;101273.78;5010719;28;20120;-73
2022/06/01 07:08:39;;;;;;;16.52;10.45;;;;;;;11.79;98.23;101259.41;5011771;28;20033;-73
2022/06/01 07:11:05;;;;;;;16.90;9.95;;;;;;;11.87;98.89;101267.25;5011735;28;20034;-72
2022/06/01 07:13:31;;;;;;;15.25;9.80;;;;;;;11.92;97.70;101263.03;5011640;28;20398;-72
2022/06/01 07:16:12;;;;;;;14.38;9.55;;;;;;;12.00;97.53;101270.91;5018900;28;20029;-72
2022/06/01 07:18:40;;;;;;;18.63;11.65;;;;;;;12.08;97.56;101267.91;5021988;28;20390;-73
2022/06/01 07:21:07;;;;;;;16.95;10.73;;;;;;;12.00;95.86;101260.06;5030267;28;20029;-72
2022/06/01 07:23:34;;;;;;;13.85;10.77;;;;;;;12.11;96.79;101272.03;5048964;28;20032;-72
2022/06/01 07:25:59;;;;;;;19.35;11.05;;;;;;;12.09;95.30;101264.13;5051512;28;20043;-72
2022/06/01 07:28:25;;;;;;;19.95;11.27;;;;;;;12.14;96.73;101272.44;5033821;28;20370;-73
2022/06/01 07:30:50;;;;;;;15.15;10.65;;;;;;;12.17;95.20;101265.75;5034508;28;20378;-72
2022/06/01 07:33:19;;;;;;;15.43;10.63;;;;;;;12.28;97.15;101278.53;5041268;28;20056;-73
2022/06/01 07:35:44;;;;;;;12.65;9.55;;;;;;;12.32;94.65;101270.78;5055227;28;20060;-73
2022/06/01 07:43:42;;;;;;;15.18;9.02;;;;;;;12.49;93.32;101279.97;5035515;28;20052;-72
2022/06/01 07:46:08;;;;;;;9.50;6.97;;;;;;;12.51;89.73;101272.41;5034779;28;20022;-72
2022/06/01 07:48:33;;;;;;;13.93;7.47;;;;;;;12.65;93.79;101269.53;5030607;28;20034;-72
2022/06/01 07:50:59;;;;;;;10.85;6.18;;;;;;;12.78;91.53;101269.38;5034195;28;20025;-73
2022/06/01 07:53:25;;;;;;;8.60;6.45;;;;;;;12.88;88.05;101274.28;5034120;28;20064;-70
2022/06/01 07:55:50;;;;;;;6.22;4.20;;;;;;;12.88;84.54;101277.00;5034900;28;20156;-72
2022/06/01 07:58:15;;;;;;;4.68;3.55;;;;;;;12.94;84.32;101274.16;5019138;28;20487;-75
2022/06/01 08:00:41;;;;;;;6.40;4.57;;;;;;;13.01;84.05;101275.97;5013597;28;20029;-76
2022/06/01 08:03:15;;;;;;;11.13;6.65;;;;;;;13.03;84.38;101285.53;5014808;28;20029;-74
2022/06/01 08:05:43;;;;;;;8.88;6.32;;;;;;;13.18;87.16;101276.97;5048386;28;20482;-75
2022/06/01 08:08:09;;;;;;;9.25;7.15;;;;;;;13.24;81.10;101278.75;5034477;28;20425;-72
2022/06/01 08:10:36;;;;;;;9.82;7.28;;;;;;;13.29;83.82;101289.75;5017038;28;20188;-73
2022/06/01 08:13:09;;;;;;;8.63;6.80;;;;;;;13.30;84.85;101272.41;5014442;28;20026;-72
2022/06/01 08:15:43;;;;;;;10.23;6.07;;;;;;;13.25;80.83;101283.13;5014782;28;20049;-73
2022/06/01 08:18:10;;;;;;;8.38;6.05;;;;;;;13.29;81.72;101286.22;5015423;28;20105;-72
2022/06/01 08:20:36;;;;;;;8.00;5.40;;;;;;;13.31;78.82;101286.81;5014662;28;20041;-72
2022/06/01 08:23:02;;;;;;;6.38;5.10;;;;;;;13.37;77.17;101295.97;5014410;28;20425;-72
2022/06/01 08:25:29;;;;;;;6.60;4.70;;;;;;;13.39;77.62;101289.22;5014635;28;20040;-72
2022/06/01 08:27:54;;;;;;;7.13;5.20;;;;;;;13.47;78.61;101280.72;5015551;28;20045;-72
2022/06/01 08:30:23;;;;;;;6.00;5.03;;;;;;;13.62;77.11;101276.75;5014241;28;20034;-72
2022/06/01 08:32:49;;;;;;;6.65;5.55;;;;;;;13.68;75.99;101269.50;4996671;28;20463;-72
2022/06/01 08:35:18;;;;;;;9.25;5.30;;;;;;;13.72;75.41;101278.88;5014147;28;20080;-72
2022/06/01 08:37:45;;;;;;;7.65;4.90;;;;;;;13.72;72.87;101276.97;5014354;28;20456;-72
2022/06/01 08:40:12;;;;;;;5.72;4.68;;;;;;;13.73;70.25;101275.91;5012736;28;20026;-73
2022/06/01 08:42:41;;;;;;;7.55;5.25;;;;;;;13.64;71.46;101269.97;5025442;28;20108;-76
2022/06/01 08:45:07;;;;;;;8.35;5.35;;;;;;;13.58;73.83;101270.94;5033714;28;20032;-79
2022/06/01 08:47:39;;;;;;;5.90;4.78;;;;;;;13.59;74.68;101269.06;5032417;28;20033;-78
2022/06/01 08:50:10;;;;;;;;;;;;;;;13.70;76.03;101278.28;5033919;28;20041;-74
2022/06/01 08:52:35;;;;;;;6.70;4.70;;;;;;;13.78;72.95;101265.16;5029737;28;20325;-76
2022/06/01 08:55:01;;;;;;;10.88;3.97;;;;;;;13.89;69.47;101274.38;5032575;28;20038;-77
2022/06/01 08:57:39;;;;;;;4.97;4.10;;;;;;;14.00;69.26;101283.59;5033730;28;20022;-75
2022/06/01 09:00:04;;;;;;;4.22;3.67;;;;;;;14.08;68.43;101274.25;5038882;28;20032;-76
2022/06/01 09:02:59;;;;;;;6.20;3.72;;;;;;;14.25;67.72;101280.63;5033150;28;20032;-75
2022/06/01 09:05:47;;;;;;;4.88;3.45;;;;;;;14.28;68.05;101290.19;5015242;28;20386;-75
2022/06/01 09:08:32;;;;;;;3.88;3.38;;;;;;;14.32;67.29;101286.75;5013854;28;20037;-76
2022/06/01 09:11:01;;;;;;;5.75;3.70;;;;;;;14.36;66.21;101285.22;5013458;28;20030;-75
2022/06/01 09:13:34;;;;;;;5.03;3.50;;;;;;;14.37;66.22;101280.59;5013270;28;20058;-75
2022/06/01 09:16:02;;;;;;;7.30;3.80;;;;;;;14.36;67.22;101277.03;5013220;28;20037;-76
2022/06/01 09:18:32;;;;;;;6.40;4.00;;;;;;;14.38;67.22;101278.72;5012983;28;20069;-76
2022/06/01 09:23:49;;;;;;;6.68;4.68;;;;;;;14.30;65.61;101280.72;5020975;28;20052;-79
2022/06/01 09:26:28;;;;;;;6.38;4.15;;;;;;;14.35;67.41;101280.00;5032352;28;20359;-79
2022/06/01 09:28:57;;;;;;;5.60;5.00;;;;;;;14.43;68.70;101285.09;5032113;28;20028;-79
2022/06/01 09:31:41;;;;;;;6.25;5.10;;;;;;;14.67;70.39;101288.63;5032976;28;20164;-78
2022/06/01 09:34:47;;;;;;;8.60;5.20;;;;;;;14.64;69.78;101293.72;5019301;28;20048;-79
2022/06/01 09:37:21;;;;;;;7.97;5.15;;;;;;;14.51;70.13;101306.50;5032754;28;20104;-79
2022/06/01 09:39:54;;;;;;;7.85;6.43;;;;;;;14.42;68.93;101301.66;5032707;28;20049;-79
2022/06/01 09:42:28;;;;;;;9.25;5.72;;;;;;;14.29;71.31;101297.31;5032663;28;20025;-78
2022/06/01 09:44:57;;;;;;;3.30;3.03;;;;;;;14.15;68.98;101302.19;5048289;28;20064;-78
2022/06/01 09:47:35;;;;;;;5.63;2.90;;;;;;;14.00;71.09;101302.66;5048009;28;20382;-77
2022/06/01 09:50:04;;;;;;;4.32;3.30;;;;;;;13.83;71.32;101300.63;5038342;28;20017;-76
2022/06/01 09:52:51;;;;;;;5.80;3.35;;;;;;;13.78;72.58;101300.53;5031923;28;20102;-77
2022/06/01 09:55:20;;;;;;;3.08;2.70;;;;;;;13.58;70.49;101298.13;5032144;28;20029;-76
2022/06/01 09:58:01;;;;;;;2.95;2.38;;;;;;;13.46;71.20;101306.25;5031181;28;20053;-76
2022/06/01 10:06:28;;;;;;;3.58;2.53;;;;;;;13.26;73.29;101327.44;5029141;28;20457;-75
2022/06/01 10:09:01;;;;;;;5.80;2.92;;;;;;;13.09;75.04;101340.88;5028898;28;20032;-75
2022/06/01 10:11:35;;;;;;;8.68;4.40;;;;;;;12.90;80.93;101340.06;5034407;28;20029;-76
2022/06/01 10:14:05;;;;;;;6.32;4.88;;;;;;;12.79;83.95;101348.94;5027776;28;20133;-70
2022/06/01 10:16:45;;;;;;;8.25;5.32;;;;;;;12.61;85.57;101347.09;5025733;28;20042;-76
2022/06/01 10:19:15;;;;;;;8.52;5.90;;;;;;;12.43;88.70;101364.22;5033587;28;20037;-75
2022/06/01 10:22:00;;;;;;;8.57;6.00;;;;;;;12.29;88.60;101363.50;5051573;28;20429;-77
2022/06/01 10:24:48;;;;;;;12.57;6.68;;;;;;;12.16;91.31;101357.13;5051843;28;20033;-76
2022/06/01 10:27:16;;;;;;;4.63;3.33;;;;;;;11.85;85.11;101350.72;5052030;28;20104;-74
2022/06/01 10:29:46;;;;;;;6.45;3.97;;;;;;;11.60;90.12;101355.28;5034215;28;20412;-77
2022/06/01 10:32:31;;;;;;;5.07;4.30;;;;;;;11.55;90.71;101349.69;5029916;28;20038;-76
2022/06/01 10:35:15;;;;;;;4.93;4.30;;;;;;;11.49;93.30;101356.81;5032346;28;20650;-77
2022/06/01 10:38:05;;;;;;;7.63;3.90;;;;;;;11.45;92.85;101345.56;5032290;28;20030;-75
2022/06/01 10:40:44;;;;;;;4.82;3.83;;;;;;;11.46;91.92;101341.00;5032059;28;20483;-77
2022/06/01 10:43:19;;;;;;;5.25;3.60;;;;;;;11.52;92.46;101345.53;5031749;28;20035;-76
2022/06/01 10:45:52;;;;;;;5.53;4.03;;;;;;;11.73;93.79;101338.06;5032028;28;20038;-77
2022/06/01 10:48:33;;;;;;;5.93;4.75;;;;;;;12.02;97.55;101337.44;5014171;28;20052;-75
2022/06/01 10:51:12;;;;;;;5.95;4.70;;;;;;;12.25;94.33;101349.53;5032138;28;20495;-76
2022/06/01 10:53:52;;;;;;;8.55;4.13;;;;;;;12.47;92.62;101351.81;5031703;28;20033;-78
2022/06/01 10:56:21;;;;;;;5.60;4.90;;;;;;;12.71;97.99;101350.94;5031584;28;20040;-76
2022/06/01 10:58:49;;;;;;;4.88;3.80;;;;;;;12.86;92.52;101349.72;5030749;28;20064;-77
2022/06/01 11:01:52;;;;;;;6.45;3.78;;;;;;;13.01;89.38;101347.41;5029307;28;20137;-77
2022/06/01 11:04:54;;;;;;;4.80;3.90;;;;;;;12.93;87.75;101345.03;5026617;28;20034;-78
2022/06/01 11:07:49;;;;;;;4.20;3.80;;;;;;;13.05;86.76;101347.81;5015600;28;20033;-77
2022/06/01 11:10:39;;;;;;;4.70;4.30;;;;;;;12.89;89.72;101341.94;5014491;28;20475;-76
2022/06/01 11:13:19;;;;;;;5.13;3.13;;;;;;;12.80;85.02;101342.47;5015920;28;20029;-77
2022/06/01 11:16:22;;;;;;;3.50;3.20;;;;;;;12.78;86.19;101337.28;5016276;28;20096;-77
2022/06/01 11:19:09;;;;;;;5.35;3.58;;;;;;;12.81;90.89;101334.09;5021441;28;20025;-76
2022/06/01 11:22:05;;;;;;;5.57;3.55;;;;;;;12.86;88.51;101328.81;5035446;28;20078;-75
2022/06/01 11:24:55;;;;;;;5.22;3.33;;;;;;;12.94;87.01;101342.09;5030914;28;20494;-77
2022/06/01 11:27:50;;;;;;;6.95;3.65;;;;;;;13.01;87.05;101341.16;5034995;28;20033;-78
2022/06/01 11:30:30;;;;;;;4.97;3.20;;;;;;;13.25;89.28;101342.91;5017422;28;20457;-77
2022/06/01 11:33:06;;;;;;;3.45;2.50;;;;;;;13.48;77.58;101352.22;5029959;28;20032;-78
2022/06/01 11:35:41;;;;;;;2.60;2.40;;;;;;;13.52;81.76;101358.88;5034939;28;20488;-76
2022/06/01 11:38:18;;;;;;;2.28;2.08;;;;;;;13.63;79.42;101358.09;5034951;28;20034;-76
2022/06/01 11:40:59;;;;;;;4.22;2.35;;;;;;;13.87;82.84;101360.00;5034445;28;20057;-77
2022/06/01 11:43:46;;;;;;;2.15;1.95;;;;;;;13.97;77.20;101361.09;5035134;28;20033;-77
2022/06/01 11:46:16;;;;;;;2.72;2.50;;;;;;;13.94;72.55;101367.00;5033669;28;20044;-77
2022/06/01 11:48:56;;;;;;;3.92;2.88;;;;;;;13.89;75.36;101379.63;5035015;28;20366;-77
2022/06/01 11:51:45;;;;;;;4.28;2.95;;;;;;;13.98;73.12;101365.47;5034541;28;20036;-77
2022/06/01 11:54:17;;;;;;;5.38;3.35;;;;;;;14.12;74.76;101365.25;5033457;28;20044;-77